createdAt,value
2023-03-24T00:01:40.872Z,10.88
2023-03-24T00:04:10.262Z,10.83
2023-03-24T00:06:39.782Z,10.78
2023-03-24T00:09:08.926Z,10.76
2023-03-24T00:11:38.985Z,10.73
2023-03-24T00:14:11.665Z,10.70
2023-03-24T00:16:42.197Z,10.71
2023-03-24T00:19:14.282Z,10.70
2023-03-24T00:21:44.902Z,10.67
2023-03-24T00:24:14.595Z,10.63
2023-03-24T00:26:43.786Z,10.61
2023-03-24T00:29:13.160Z,10.59
2023-03-24T00:31:42.851Z,10.59
2023-03-24T00:34:13.124Z,10.59
2023-03-24T00:36:42.280Z,10.58
2023-03-24T00:39:11.674Z,10.58
2023-03-24T00:41:44.681Z,10.58
2023-03-24T00:44:17.464Z,10.56
2023-03-24T00:46:55.536Z,10.55
2023-03-24T00:49:41.922Z,10.56
2023-03-24T00:52:12.696Z,10.58
2023-03-24T00:54:42.846Z,10.59
2023-03-24T00:57:14.188Z,10.59
2023-03-24T00:59:48.799Z,10.62
2023-03-24T01:02:21.720Z,10.64
2023-03-24T01:04:55.835Z,10.62
2023-03-24T01:07:27.691Z,10.62
2023-03-24T01:09:58.123Z,10.64
2023-03-24T01:12:31.458Z,10.63
2023-03-24T01:15:05.158Z,10.59
2023-03-24T01:17:34.556Z,10.55
2023-03-24T01:20:07.503Z,10.50
2023-03-24T01:22:39.382Z,10.45
2023-03-24T01:25:11.861Z,10.43
2023-03-24T01:27:41.198Z,10.42
2023-03-24T01:30:14.293Z,10.42
2023-03-24T01:32:47.064Z,10.42
2023-03-24T01:35:16.850Z,10.43
2023-03-24T01:37:45.996Z,10.44
2023-03-24T01:40:19.447Z,10.43
2023-03-24T01:42:48.950Z,10.46
2023-03-24T01:45:58.264Z,10.49
2023-03-24T01:48:33.927Z,10.52
2023-03-24T01:51:07.354Z,10.53
2023-03-24T01:53:42.414Z,10.54
2023-03-24T01:56:12.288Z,10.55
2023-03-24T01:58:48.342Z,10.55
2023-03-24T02:01:19.014Z,10.50
2023-03-24T02:03:49.125Z,10.45
2023-03-24T02:06:19.673Z,10.40
2023-03-24T02:08:54.498Z,10.36
2023-03-24T02:11:30.678Z,10.33
2023-03-24T02:33:28.333Z,10.15
2023-03-24T02:36:28.041Z,10.14
2023-03-24T02:39:32.704Z,10.15
2023-03-24T02:42:12.012Z,10.14
2023-03-24T02:44:48.146Z,10.11
2023-03-24T02:47:24.373Z,10.10
2023-03-24T02:50:03.988Z,10.09
2023-03-24T02:52:35.478Z,10.12
2023-03-24T02:55:12.472Z,10.11
2023-03-24T02:57:48.826Z,10.09
2023-03-24T03:00:26.502Z,10.02
2023-03-24T03:03:02.311Z,9.98
2023-03-24T03:05:37.178Z,9.99
2023-03-24T03:08:09.996Z,9.97
2023-03-24T03:10:43.257Z,9.98
2023-03-24T03:13:21.208Z,9.97
2023-03-24T03:15:55.063Z,9.97
2023-03-24T03:18:32.931Z,10.01
2023-03-24T03:21:06.924Z,10.03
2023-03-24T03:23:38.646Z,10.05
2023-03-24T03:26:13.083Z,10.07
2023-03-24T03:28:49.300Z,10.11
2023-03-24T03:31:23.847Z,10.12
2023-03-24T03:33:58.735Z,10.10
2023-03-24T03:36:33.429Z,10.07
2023-03-24T03:39:10.585Z,10.04
2023-03-24T03:41:40.421Z,10.05
2023-03-24T03:44:10.152Z,10.05
2023-03-24T03:46:39.569Z,10.03
2023-03-24T03:49:09.721Z,10.00
2023-03-24T03:51:39.368Z,9.96
2023-03-24T03:54:11.620Z,9.97
2023-03-24T03:56:41.990Z,9.98
2023-03-24T03:59:26.963Z,9.99
2023-03-24T04:01:57.852Z,9.98
2023-03-24T04:04:59.751Z,9.98
2023-03-24T04:07:42.241Z,10.03
2023-03-24T04:10:21.240Z,10.05
2023-03-24T04:13:07.587Z,10.04
2023-03-24T04:15:42.948Z,10.03
2023-03-24T04:18:31.788Z,10.04
2023-03-24T04:21:27.743Z,10.05
2023-03-24T04:24:13.696Z,10.02
2023-03-24T04:26:53.948Z,9.94
2023-03-24T04:29:36.500Z,9.87
2023-03-24T04:32:18.987Z,9.86
2023-03-24T04:34:53.771Z,9.91
2023-03-24T04:37:26.744Z,9.93
2023-03-24T04:39:59.590Z,9.95
2023-03-24T04:42:35.496Z,9.97
2023-03-24T04:45:05.981Z,10.01
2023-03-24T04:47:49.388Z,10.04
2023-03-24T04:50:30.306Z,10.00
2023-03-24T04:53:01.320Z,9.95
2023-03-24T04:55:50.922Z,9.90
2023-03-24T04:58:31.780Z,9.88
2023-03-24T05:01:02.749Z,9.91
2023-03-24T05:03:31.943Z,9.92
2023-03-24T05:06:01.092Z,9.95
2023-03-24T05:08:30.468Z,9.95
2023-03-24T05:11:01.095Z,9.96
2023-03-24T05:13:32.044Z,9.99
2023-03-24T05:16:01.525Z,10.04
2023-03-24T05:18:30.889Z,10.07
2023-03-24T05:21:00.636Z,10.10
2023-03-24T05:23:30.213Z,10.12
2023-03-24T05:26:00.185Z,10.14
2023-03-24T05:28:30.551Z,10.19
2023-03-24T05:31:01.034Z,10.22
2023-03-24T05:33:30.897Z,10.22
2023-03-24T05:36:00.430Z,10.23
2023-03-24T05:38:37.604Z,10.27
2023-03-24T05:41:08.879Z,10.35
2023-03-24T05:43:38.084Z,10.39
2023-03-24T05:46:08.325Z,10.45
2023-03-24T05:48:37.539Z,10.50
2023-03-24T05:51:07.992Z,10.52
2023-03-24T05:53:40.213Z,10.56
2023-03-24T05:56:15.030Z,10.62
2023-03-24T05:58:45.496Z,10.68
2023-03-24T06:01:18.028Z,10.70
2023-03-24T06:03:48.985Z,10.70
2023-03-24T06:06:18.680Z,10.76
2023-03-24T06:08:47.933Z,10.85
2023-03-24T06:11:17.066Z,10.92
2023-03-24T06:13:46.585Z,10.94
2023-03-24T06:16:18.358Z,10.98
2023-03-24T06:18:51.944Z,10.99
2023-03-24T06:21:21.833Z,11.04
2023-03-24T06:23:51.686Z,11.09
2023-03-24T06:26:20.753Z,11.17
2023-03-24T06:28:51.517Z,11.21
2023-03-24T06:31:21.782Z,11.23
2023-03-24T06:33:52.526Z,11.26
2023-03-24T06:36:23.124Z,11.34
2023-03-24T06:38:53.865Z,11.44
2023-03-24T06:41:35.796Z,11.52
2023-03-24T06:44:05.079Z,11.60
2023-03-24T06:46:34.439Z,11.65
2023-03-24T06:49:04.369Z,11.70
2023-03-24T06:51:33.736Z,11.77
2023-03-24T06:54:03.605Z,11.86
2023-03-24T06:56:34.422Z,11.91
2023-03-24T06:59:04.010Z,11.97
2023-03-24T07:01:34.581Z,12.04
2023-03-24T07:04:04.125Z,12.10
2023-03-24T07:06:40.420Z,12.20
2023-03-24T07:09:13.292Z,12.31
2023-03-24T07:11:45.973Z,12.38
2023-03-24T07:14:15.471Z,12.46
2023-03-24T07:16:44.817Z,12.53
2023-03-24T07:19:13.869Z,12.62
2023-03-24T07:21:43.749Z,12.73
2023-03-24T07:24:12.950Z,12.85
2023-03-24T07:26:42.093Z,12.95
2023-03-24T07:29:13.344Z,13.05
2023-03-24T07:31:42.626Z,13.13
2023-03-24T07:34:11.729Z,13.22
2023-03-24T07:36:41.029Z,13.30
2023-03-24T07:39:10.243Z,13.39
2023-03-24T07:41:39.416Z,13.46
2023-03-24T07:44:09.223Z,13.52
2023-03-24T07:46:38.556Z,13.59
2023-03-24T07:49:18.221Z,13.62
2023-03-24T07:51:48.728Z,13.71
2023-03-24T07:54:18.214Z,13.79
2023-03-24T07:56:47.348Z,13.84
2023-03-24T07:59:17.340Z,13.92
2023-03-24T08:01:51.317Z,13.99
2023-03-24T08:04:23.918Z,14.05
2023-03-24T08:06:53.520Z,14.09
2023-03-24T08:09:23.649Z,14.14
2023-03-24T08:11:52.995Z,14.23
2023-03-24T08:14:22.967Z,14.36
2023-03-24T08:16:53.233Z,14.45
2023-03-24T08:19:22.775Z,14.49
2023-03-24T08:21:51.914Z,14.55
2023-03-24T08:24:20.873Z,14.58
2023-03-24T08:26:50.198Z,14.64
2023-03-24T08:29:19.180Z,14.69
2023-03-24T08:31:48.380Z,14.73
2023-03-24T08:34:18.678Z,14.79
2023-03-24T08:36:48.469Z,14.86
2023-03-24T08:39:17.687Z,14.89
2023-03-24T08:41:49.593Z,14.87
2023-03-24T08:44:18.856Z,14.86
2023-03-24T08:46:48.272Z,14.88
2023-03-24T08:49:18.692Z,14.94
2023-03-24T08:51:47.981Z,15.02
2023-03-24T08:54:17.302Z,15.06
2023-03-24T08:56:46.936Z,15.13
2023-03-24T08:59:16.367Z,15.20
2023-03-24T09:01:45.535Z,15.31
2023-03-24T09:04:15.143Z,15.38
2023-03-24T09:06:44.426Z,15.49
2023-03-24T09:09:13.733Z,15.54
2023-03-24T09:11:42.971Z,15.60
2023-03-24T09:14:12.195Z,15.63
2023-03-24T09:16:43.420Z,15.68
2023-03-24T09:19:12.897Z,15.74
2023-03-24T09:21:42.588Z,15.78
2023-03-24T09:24:11.719Z,15.85
2023-03-24T09:26:41.206Z,15.91
2023-03-24T09:29:10.422Z,15.95
2023-03-24T09:31:39.599Z,16.03
2023-03-24T09:34:09.380Z,16.11
2023-03-24T09:36:38.400Z,16.15
2023-03-24T09:39:08.243Z,16.22
2023-03-24T09:41:37.931Z,16.29
2023-03-24T09:44:14.062Z,16.35
2023-03-24T09:46:47.712Z,16.36
2023-03-24T09:49:24.800Z,16.39
2023-03-24T09:51:57.187Z,16.42
2023-03-24T09:54:37.676Z,16.51
2023-03-24T09:57:16.643Z,16.57
2023-03-24T09:59:45.801Z,16.65
2023-03-24T10:02:18.206Z,16.67
2023-03-24T10:04:47.908Z,16.67
2023-03-24T10:07:25.150Z,16.73
2023-03-24T10:09:59.473Z,16.77
2023-03-24T10:12:36.886Z,16.85
2023-03-24T10:15:24.343Z,16.95
2023-03-24T10:18:19.439Z,16.96
2023-03-24T10:20:54.745Z,17.05
2023-03-24T10:23:33.112Z,17.14
2023-03-24T10:26:09.388Z,17.18
2023-03-24T10:28:45.037Z,17.24
2023-03-24T10:31:17.626Z,17.26
2023-03-24T10:33:49.227Z,17.30
2023-03-24T10:36:20.943Z,17.38
2023-03-24T10:38:50.562Z,17.42
2023-03-24T10:41:21.965Z,17.48
2023-03-24T10:43:52.716Z,17.58
2023-03-24T10:46:25.614Z,17.61
2023-03-24T10:49:08.143Z,17.66
2023-03-24T10:51:37.911Z,17.70
2023-03-24T10:54:16.801Z,17.72
2023-03-24T10:56:48.287Z,17.75
2023-03-24T10:59:22.814Z,17.78
2023-03-24T11:01:56.476Z,17.86
2023-03-24T11:04:26.660Z,17.98
2023-03-24T11:07:15.379Z,18.02
2023-03-24T11:09:46.478Z,18.05
2023-03-24T11:12:23.572Z,18.11
2023-03-24T11:15:10.458Z,18.18
2023-03-24T11:17:48.527Z,18.25
2023-03-24T11:20:37.655Z,18.29
2023-03-24T11:23:11.387Z,18.29
2023-03-24T11:25:42.343Z,18.31
2023-03-24T11:28:18.221Z,18.33
2023-03-24T11:30:51.143Z,18.38
2023-03-24T11:33:35.541Z,18.40
2023-03-24T11:36:31.019Z,18.42
2023-03-24T11:39:04.337Z,18.52
2023-03-24T11:41:42.107Z,18.56
2023-03-24T11:44:23.080Z,18.65
2023-03-24T11:46:57.135Z,18.74
2023-03-24T11:49:34.833Z,18.75
2023-03-24T11:52:09.916Z,18.77
2023-03-24T11:54:39.984Z,18.84
2023-03-24T11:57:17.243Z,18.89
2023-03-24T11:59:57.401Z,18.98
2023-03-24T12:02:43.974Z,19.11
2023-03-24T12:05:26.749Z,19.17
2023-03-24T12:08:18.205Z,19.24
2023-03-24T12:11:01.006Z,19.32
2023-03-24T12:13:37.432Z,19.43
2023-03-24T12:16:32.645Z,19.44
2023-03-24T12:19:36.729Z,19.52
2023-03-24T12:22:20.608Z,19.51
2023-03-24T12:25:18.575Z,19.58
2023-03-24T12:27:56.472Z,19.68
2023-03-24T12:30:31.604Z,19.80
2023-03-24T12:33:14.972Z,19.86
2023-03-24T12:35:56.536Z,19.93
2023-03-24T12:38:41.113Z,20.05
2023-03-24T12:41:31.173Z,20.17
2023-03-24T12:44:17.671Z,20.29
2023-03-24T12:46:54.172Z,20.49
2023-03-24T12:49:46.901Z,20.67
2023-03-24T12:52:32.528Z,20.82
2023-03-24T12:55:08.880Z,20.89
2023-03-24T12:57:42.812Z,20.88
2023-03-24T13:00:18.544Z,20.97
2023-03-24T13:02:52.209Z,21.16
2023-03-24T13:05:27.036Z,21.30
2023-03-24T13:08:02.650Z,21.47
2023-03-24T13:10:39.855Z,21.48
2023-03-24T13:13:17.258Z,21.37
2023-03-24T13:15:49.909Z,21.35
2023-03-24T13:18:28.338Z,21.43
2023-03-24T13:21:03.409Z,21.47
2023-03-24T13:23:40.754Z,21.51
2023-03-24T13:26:18.862Z,21.59
2023-03-24T13:29:01.080Z,21.57
2023-03-24T13:31:36.625Z,21.60
2023-03-24T13:34:13.162Z,21.82
2023-03-24T13:36:49.001Z,22.06
2023-03-24T13:39:21.567Z,22.39
2023-03-24T13:41:53.552Z,22.60
2023-03-24T13:44:28.455Z,22.74
2023-03-24T13:47:16.172Z,22.80
2023-03-24T13:49:54.002Z,23.05
2023-03-24T13:52:31.590Z,23.25
2023-03-24T13:55:08.518Z,23.45
2023-03-24T13:57:41.902Z,23.64
2023-03-24T14:00:22.731Z,23.72
2023-03-24T14:02:54.666Z,24.03
2023-03-24T14:06:02.229Z,24.42
2023-03-24T14:08:55.920Z,24.92
2023-03-24T14:12:08.492Z,25.31
2023-03-24T14:15:12.748Z,25.66
2023-03-24T14:17:45.484Z,25.95
2023-03-24T14:20:32.542Z,26.31
2023-03-24T14:23:04.166Z,26.69
2023-03-24T14:25:36.261Z,26.95
2023-03-24T14:28:22.971Z,27.19
2023-03-24T14:31:09.392Z,27.07
2023-03-24T14:33:39.288Z,27.17
2023-03-24T14:36:12.460Z,27.52
2023-03-24T14:38:44.747Z,27.59
2023-03-24T14:41:23.252Z,27.44
2023-03-24T14:43:58.983Z,27.66
2023-03-24T14:46:41.373Z,27.76
2023-03-24T14:49:24.561Z,27.50
2023-03-24T14:52:02.027Z,27.40
2023-03-24T14:54:38.034Z,27.57
2023-03-24T14:57:08.934Z,27.90
2023-03-24T14:59:47.038Z,28.08
2023-03-24T15:02:28.516Z,28.26
2023-03-24T15:05:22.883Z,28.37
2023-03-24T15:08:15.352Z,28.36
2023-03-24T15:10:49.857Z,28.13
2023-03-24T15:13:32.225Z,27.95
2023-03-24T15:16:05.202Z,27.41
2023-03-24T15:18:34.845Z,26.84
2023-03-24T15:21:15.848Z,26.39
2023-03-24T15:23:49.017Z,26.04
2023-03-24T15:26:22.226Z,25.69
2023-03-24T15:28:59.926Z,25.37
2023-03-24T15:31:31.652Z,24.91
2023-03-24T15:34:08.406Z,24.49
2023-03-24T15:36:45.080Z,23.98
2023-03-24T15:39:24.816Z,23.47
2023-03-24T15:41:56.321Z,23.00
2023-03-24T15:44:28.426Z,22.63
2023-03-24T15:46:59.676Z,22.34
2023-03-24T15:49:34.856Z,22.23
2023-03-24T15:52:22.510Z,22.12
2023-03-24T15:54:54.526Z,21.90
2023-03-24T15:57:25.068Z,21.66
2023-03-24T16:00:12.567Z,21.48
2023-03-24T16:02:51.802Z,21.31
2023-03-24T16:05:23.822Z,21.17
2023-03-24T16:08:03.177Z,21.04
2023-03-24T16:10:39.420Z,21.03
2023-03-24T16:13:20.410Z,21.02
2023-03-24T16:15:58.417Z,20.93
2023-03-24T16:18:33.239Z,20.78
2023-03-24T16:21:09.992Z,20.64
2023-03-24T16:23:41.795Z,20.50
2023-03-24T16:26:13.857Z,20.34
2023-03-24T16:28:43.256Z,20.14
2023-03-24T16:31:25.458Z,19.98
2023-03-24T16:33:59.849Z,19.81
2023-03-24T16:36:29.430Z,19.66
2023-03-24T16:39:01.859Z,19.53
2023-03-24T16:41:35.120Z,19.39
2023-03-24T16:44:05.207Z,19.28
2023-03-24T16:46:36.460Z,19.20
2023-03-24T16:49:08.220Z,19.10
2023-03-24T16:51:37.541Z,18.97
2023-03-24T16:54:08.700Z,18.86
2023-03-24T16:56:41.864Z,18.76
2023-03-24T16:59:14.262Z,18.70
2023-03-24T17:01:45.343Z,18.62
2023-03-24T17:04:17.379Z,18.57
2023-03-24T17:06:48.564Z,18.52
2023-03-24T17:09:18.476Z,18.46
2023-03-24T17:11:51.355Z,18.42
2023-03-24T17:14:21.121Z,18.40
2023-03-24T17:16:52.113Z,18.37
2023-03-24T17:19:23.446Z,18.33
2023-03-24T17:21:58.188Z,18.29
2023-03-24T17:24:28.158Z,18.25
2023-03-24T17:26:57.431Z,18.22
2023-03-24T17:29:26.852Z,18.17
2023-03-24T17:31:56.605Z,18.12
2023-03-24T17:34:25.636Z,18.07
2023-03-24T17:36:55.175Z,18.02
2023-03-24T17:39:24.818Z,17.98
2023-03-24T17:41:57.146Z,17.96
2023-03-24T17:44:26.986Z,17.94
2023-03-24T17:46:56.713Z,17.92
2023-03-24T17:49:28.130Z,17.87
2023-03-24T17:51:58.104Z,17.80
2023-03-24T17:54:27.542Z,17.72
2023-03-24T17:57:11.061Z,17.67
2023-03-24T17:59:47.456Z,17.61
2023-03-24T18:02:20.804Z,17.57
2023-03-24T18:04:58.650Z,17.55
2023-03-24T18:07:28.406Z,17.53
2023-03-24T18:09:57.819Z,17.53
2023-03-24T18:12:27.962Z,17.54
2023-03-24T18:14:57.177Z,17.55
2023-03-24T18:17:26.904Z,17.53
2023-03-24T18:19:59.030Z,17.50
2023-03-24T18:22:28.609Z,17.47
2023-03-24T18:24:57.836Z,17.44
2023-03-24T18:27:27.614Z,17.43
2023-03-24T18:29:57.169Z,17.40
2023-03-24T18:32:28.354Z,17.35
2023-03-24T18:35:00.268Z,17.33
2023-03-24T18:37:34.704Z,17.31
2023-03-24T18:40:07.911Z,17.29
2023-03-24T18:42:38.510Z,17.26
2023-03-24T18:45:16.715Z,17.22
2023-03-24T18:47:47.221Z,17.18
2023-03-24T18:50:17.765Z,17.15
2023-03-24T18:52:49.035Z,17.14
2023-03-24T18:55:20.169Z,17.14
2023-03-24T18:57:50.316Z,17.11
2023-03-24T19:00:21.637Z,17.05
2023-03-24T19:02:51.840Z,17.01
2023-03-24T19:05:21.744Z,16.96
2023-03-24T19:07:51.763Z,16.90
2023-03-24T19:10:21.907Z,16.85
2023-03-24T19:12:51.374Z,16.80
2023-03-24T19:15:21.288Z,16.76
2023-03-24T19:17:50.877Z,16.73
2023-03-24T19:20:20.816Z,16.69
2023-03-24T19:22:50.225Z,16.65
2023-03-24T19:25:19.744Z,16.62
2023-03-24T19:27:49.895Z,16.57
2023-03-24T19:30:19.885Z,16.52
2023-03-24T19:32:49.918Z,16.49
2023-03-24T19:35:19.418Z,16.46
2023-03-24T19:37:49.584Z,16.44
2023-03-24T19:40:19.044Z,16.41
2023-03-24T19:42:48.371Z,16.41
2023-03-24T19:45:19.259Z,16.39
2023-03-24T19:47:48.765Z,16.35
2023-03-24T19:50:18.884Z,16.35
2023-03-24T19:52:48.005Z,16.33
2023-03-24T19:55:18.699Z,16.31
2023-03-24T19:57:48.532Z,16.29
2023-03-24T20:00:19.438Z,16.27
2023-03-24T20:02:49.914Z,16.24
2023-03-24T20:05:19.368Z,16.21
2023-03-24T20:07:49.040Z,16.17
2023-03-24T20:10:20.862Z,16.14
2023-03-24T20:12:55.247Z,16.07
2023-03-24T20:15:33.208Z,16.00
2023-03-24T20:18:03.684Z,15.93
2023-03-24T20:20:33.867Z,15.88
2023-03-24T20:23:03.926Z,15.82
2023-03-24T20:25:34.199Z,15.76
2023-03-24T20:28:04.389Z,15.72
2023-03-24T20:30:34.474Z,15.66
2023-03-24T20:33:04.915Z,15.61
2023-03-24T20:35:36.500Z,15.55
2023-03-24T20:38:06.788Z,15.50
2023-03-24T20:40:36.886Z,15.46
2023-03-24T20:43:06.975Z,15.43
2023-03-24T20:45:37.364Z,15.38
2023-03-24T20:48:08.270Z,15.37
2023-03-24T20:50:37.613Z,15.36
2023-03-24T20:53:08.565Z,15.31
2023-03-24T20:55:38.316Z,15.28
2023-03-24T20:58:08.113Z,15.26
2023-03-24T21:00:41.335Z,15.25
2023-03-24T21:03:11.880Z,15.24
2023-03-24T21:05:41.610Z,15.27
2023-03-24T21:08:11.001Z,15.29
2023-03-24T21:10:40.503Z,15.28
2023-03-24T21:13:10.029Z,15.28
2023-03-24T21:15:47.574Z,15.27
2023-03-24T21:18:17.309Z,15.29
2023-03-24T21:20:55.013Z,15.29
2023-03-24T21:23:27.043Z,15.29
2023-03-24T21:25:56.180Z,15.27
2023-03-24T21:28:27.920Z,15.25
2023-03-24T21:30:57.934Z,15.24
2023-03-24T21:33:27.539Z,15.23
2023-03-24T21:35:57.824Z,15.22
2023-03-24T21:38:28.169Z,15.22
2023-03-24T21:41:00.256Z,15.20
2023-03-24T21:43:30.144Z,15.20
2023-03-24T21:46:14.343Z,15.20
2023-03-24T21:48:49.579Z,15.19
2023-03-24T21:51:23.487Z,15.17
2023-03-24T21:53:54.895Z,15.15
2023-03-24T21:56:24.161Z,15.12
2023-03-24T21:58:54.502Z,15.10
2023-03-24T22:01:24.647Z,15.07
2023-03-24T22:03:55.236Z,15.03
2023-03-24T22:06:24.796Z,14.99
2023-03-24T22:08:57.658Z,14.88
2023-03-24T22:11:27.224Z,14.77
2023-03-24T22:13:56.541Z,14.74
2023-03-24T22:16:25.666Z,14.74
2023-03-24T22:18:56.724Z,14.71
2023-03-24T22:21:26.938Z,14.65
2023-03-24T22:23:56.624Z,14.62
2023-03-24T22:26:26.245Z,14.61
2023-03-24T22:28:55.977Z,14.58
2023-03-24T22:31:25.795Z,14.58
2023-03-24T22:33:55.777Z,14.55
2023-03-24T22:36:25.618Z,14.50
2023-03-24T22:38:55.234Z,14.47
2023-03-24T22:41:24.594Z,14.44
2023-03-24T22:43:54.716Z,14.37
2023-03-24T22:46:25.608Z,14.29
2023-03-24T22:48:56.072Z,14.24
2023-03-24T22:51:25.476Z,14.23
2023-03-24T22:53:55.086Z,14.23
2023-03-24T22:56:24.929Z,14.23
2023-03-24T22:58:55.021Z,14.22
2023-03-24T23:01:26.289Z,14.19
2023-03-24T23:03:55.726Z,14.16
2023-03-24T23:06:26.950Z,14.12
2023-03-24T23:08:56.512Z,14.08
2023-03-24T23:11:26.133Z,14.00
2023-03-24T23:14:04.691Z,13.93
2023-03-24T23:16:34.651Z,13.86
2023-03-24T23:19:04.821Z,13.80
2023-03-24T23:21:34.246Z,13.76
2023-03-24T23:24:03.749Z,13.71
2023-03-24T23:26:33.512Z,13.65
2023-03-24T23:29:02.939Z,13.59
2023-03-24T23:31:32.418Z,13.56
2023-03-24T23:34:04.369Z,13.54
2023-03-24T23:36:50.548Z,13.51
2023-03-24T23:39:20.509Z,13.46
2023-03-24T23:41:49.995Z,13.42
2023-03-24T23:44:19.694Z,13.39
2023-03-24T23:46:48.898Z,13.34
2023-03-24T23:49:18.491Z,13.29
2023-03-24T23:51:47.696Z,13.26
2023-03-24T23:54:17.104Z,13.21
2023-03-24T23:56:46.999Z,13.17
2023-03-24T23:59:16.337Z,13.13
